createdAt,value
2019-05-20T00:01:33.441Z,11.80
2019-05-20T00:04:02.979Z,11.70
2019-05-20T00:06:32.450Z,11.80
2019-05-20T00:09:02.071Z,11.70
2019-05-20T00:11:31.720Z,11.70
2019-05-20T00:14:01.224Z,11.70
2019-05-20T00:16:30.723Z,11.60
2019-05-20T00:19:00.267Z,11.60
2019-05-20T00:21:29.799Z,11.60
2019-05-20T00:23:59.291Z,11.60
2019-05-20T00:26:28.813Z,11.70
2019-05-20T00:28:58.305Z,11.70
2019-05-20T00:31:28.332Z,11.70
2019-05-20T00:33:57.822Z,11.70
2019-05-20T00:36:27.310Z,11.70
2019-05-20T00:39:14.655Z,11.70
2019-05-20T00:41:44.155Z,11.80
2019-05-20T00:44:13.735Z,11.80
2019-05-20T00:46:43.188Z,11.80
2019-05-20T00:49:12.726Z,11.80
2019-05-20T00:51:42.986Z,11.80
2019-05-20T00:54:12.686Z,11.80
2019-05-20T00:56:42.924Z,11.80
2019-05-20T00:59:12.436Z,11.80
2019-05-20T01:01:41.950Z,11.80
2019-05-20T01:04:11.827Z,11.80
2019-05-20T01:06:41.475Z,11.80
2019-05-20T01:09:11.023Z,11.70
2019-05-20T01:11:40.523Z,11.70
2019-05-20T01:14:10.047Z,11.70
2019-05-20T01:16:40.075Z,11.70
2019-05-20T01:19:09.711Z,11.60
2019-05-20T01:21:39.200Z,11.70
2019-05-20T01:24:08.720Z,11.70
2019-05-20T01:26:38.621Z,11.70
2019-05-20T01:29:08.134Z,11.70
2019-05-20T01:31:37.634Z,11.80
2019-05-20T01:34:07.218Z,11.90
2019-05-20T01:36:36.700Z,11.90
2019-05-20T01:39:07.603Z,11.90
2019-05-20T01:41:37.086Z,11.80
2019-05-20T01:44:06.892Z,11.70
2019-05-20T01:46:36.434Z,11.70
2019-05-20T01:49:05.954Z,11.60
2019-05-20T01:51:35.463Z,11.80
2019-05-20T01:54:05.048Z,11.70
2019-05-20T01:56:34.927Z,11.70
2019-05-20T01:59:04.442Z,11.60
2019-05-20T02:01:34.372Z,11.60
2019-05-20T02:04:03.859Z,11.60
2019-05-20T02:06:33.524Z,11.60
2019-05-20T02:09:03.080Z,11.60
2019-05-20T02:11:32.569Z,11.70
2019-05-20T02:14:06.508Z,11.70
2019-05-20T02:16:36.022Z,11.80
2019-05-20T02:19:05.877Z,11.80
2019-05-20T02:21:35.814Z,11.90
2019-05-20T02:24:05.359Z,11.90
2019-05-20T02:26:34.896Z,11.90
2019-05-20T02:29:04.843Z,12.00
2019-05-20T02:31:34.353Z,12.00
2019-05-20T02:34:03.909Z,12.00
2019-05-20T02:36:34.199Z,12.00
2019-05-20T02:39:05.137Z,12.00
2019-05-20T02:41:34.634Z,12.00
2019-05-20T02:44:04.280Z,12.00
2019-05-20T02:46:34.144Z,12.00
2019-05-20T02:49:03.648Z,12.00
2019-05-20T02:51:33.392Z,12.10
2019-05-20T02:54:03.896Z,12.10
2019-05-20T02:56:33.470Z,12.10
2019-05-20T02:59:02.939Z,12.10
2019-05-20T03:01:32.431Z,12.10
2019-05-20T03:04:11.635Z,12.20
2019-05-20T03:06:33.106Z,12.10
2019-05-20T03:09:02.689Z,12.20
2019-05-20T03:11:32.193Z,12.20
2019-05-20T03:14:01.711Z,12.30
2019-05-20T03:16:31.201Z,12.30
2019-05-20T03:19:00.711Z,12.30
2019-05-20T03:21:30.211Z,12.30
2019-05-20T03:23:59.727Z,12.40
2019-05-20T03:26:29.256Z,12.40
2019-05-20T03:28:58.775Z,12.40
2019-05-20T03:31:28.287Z,12.40
2019-05-20T03:33:58.249Z,12.40
2019-05-20T03:36:27.743Z,12.50
2019-05-20T03:38:57.255Z,12.50
2019-05-20T03:41:26.799Z,12.50
2019-05-20T03:43:56.303Z,12.50
2019-05-20T03:46:25.820Z,12.60
2019-05-20T03:48:55.319Z,12.60
2019-05-20T03:51:24.839Z,12.60
2019-05-20T03:53:54.487Z,12.60
2019-05-20T03:56:24.034Z,12.70
2019-05-20T03:58:53.996Z,12.70
2019-05-20T04:01:23.619Z,12.80
2019-05-20T04:03:53.494Z,12.80
2019-05-20T04:06:23.023Z,12.80
2019-05-20T04:08:52.568Z,12.90
2019-05-20T04:11:22.084Z,12.90
2019-05-20T04:13:51.575Z,12.90
2019-05-20T04:16:21.121Z,12.90
2019-05-20T04:18:54.021Z,12.90
2019-05-20T04:21:22.178Z,12.90
2019-05-20T04:23:52.136Z,12.90
2019-05-20T04:26:21.714Z,12.90
2019-05-20T04:28:51.254Z,12.90
2019-05-20T04:31:21.160Z,12.90
2019-05-20T04:33:50.686Z,12.90
2019-05-20T04:36:20.251Z,12.90
2019-05-20T04:38:50.526Z,12.80
2019-05-20T04:41:20.179Z,12.80
2019-05-20T04:43:50.316Z,12.90
2019-05-20T04:46:20.153Z,12.90
2019-05-20T04:48:49.650Z,12.90
2019-05-20T04:51:19.197Z,13.00
2019-05-20T04:53:48.731Z,13.00
2019-05-20T04:56:18.263Z,12.90
2019-05-20T04:58:47.780Z,12.90
2019-05-20T05:01:17.626Z,12.80
2019-05-20T05:03:47.187Z,12.80
2019-05-20T05:06:16.819Z,12.80
2019-05-20T05:08:46.460Z,12.90
2019-05-20T05:11:16.422Z,13.00
2019-05-20T05:13:45.974Z,12.90
2019-05-20T05:16:15.946Z,12.90
2019-05-20T05:18:45.597Z,13.00
2019-05-20T05:21:15.103Z,13.00
2019-05-20T05:23:58.266Z,13.00
2019-05-20T05:26:16.232Z,12.90
2019-05-20T05:28:46.639Z,12.90
2019-05-20T05:31:16.859Z,12.90
2019-05-20T05:33:46.454Z,12.90
2019-05-20T05:36:15.979Z,12.90
2019-05-20T05:38:45.474Z,12.90
2019-05-20T05:41:15.318Z,13.00
2019-05-20T05:43:44.807Z,13.00
2019-05-20T05:46:14.364Z,13.10
2019-05-20T05:48:44.276Z,13.30
2019-05-20T05:51:14.433Z,13.50
2019-05-20T05:53:44.698Z,13.50
2019-05-20T05:56:15.425Z,13.60
2019-05-20T05:58:44.917Z,13.60
2019-05-20T06:01:14.575Z,13.50
2019-05-20T06:03:44.230Z,13.50
2019-05-20T06:06:13.873Z,13.60
2019-05-20T06:08:43.951Z,13.40
2019-05-20T06:11:13.511Z,13.60
2019-05-20T06:13:43.455Z,13.70
2019-05-20T06:16:12.955Z,13.80
2019-05-20T06:18:42.844Z,13.80
2019-05-20T06:21:12.517Z,13.90
2019-05-20T06:23:42.637Z,14.00
2019-05-20T06:26:12.693Z,13.90
2019-05-20T06:28:42.191Z,14.00
2019-05-20T06:31:11.758Z,14.00
2019-05-20T06:33:42.661Z,14.10
2019-05-20T06:36:25.941Z,14.10
2019-05-20T06:38:46.239Z,14.20
2019-05-20T06:41:16.155Z,14.20
2019-05-20T06:43:45.791Z,14.20
2019-05-20T06:46:15.911Z,14.00
2019-05-20T06:48:45.779Z,14.10
2019-05-20T06:51:15.350Z,14.20
2019-05-20T06:53:46.204Z,14.30
2019-05-20T06:56:16.171Z,14.40
2019-05-20T06:58:45.813Z,14.40
2019-05-20T07:01:16.139Z,14.30
2019-05-20T07:03:45.643Z,14.30
2019-05-20T07:06:15.189Z,14.20
2019-05-20T07:08:45.191Z,14.20
2019-05-20T07:11:14.802Z,14.20
2019-05-20T07:13:44.572Z,14.30
2019-05-20T07:16:14.208Z,14.30
2019-05-20T07:18:43.751Z,14.40
2019-05-20T07:21:13.250Z,14.40
2019-05-20T07:23:42.774Z,14.50
2019-05-20T07:26:12.264Z,14.70
2019-05-20T07:28:41.816Z,14.80
2019-05-20T07:31:11.305Z,14.90
2019-05-20T07:33:41.208Z,14.80
2019-05-20T07:36:10.722Z,14.90
2019-05-20T07:38:40.598Z,15.00
2019-05-20T07:41:10.145Z,14.90
2019-05-20T07:43:39.654Z,14.90
2019-05-20T07:46:10.449Z,15.00
2019-05-20T07:48:41.055Z,15.10
2019-05-20T07:51:11.856Z,14.80
2019-05-20T07:53:42.292Z,15.00
2019-05-20T07:56:15.976Z,15.10
2019-05-20T07:58:49.474Z,15.10
2019-05-20T08:01:19.217Z,15.00
2019-05-20T08:03:48.749Z,15.00
2019-05-20T08:06:18.264Z,15.10
2019-05-20T08:08:47.776Z,15.30
2019-05-20T08:11:17.317Z,15.10
2019-05-20T08:13:47.268Z,15.10
2019-05-20T08:16:17.156Z,15.00
2019-05-20T08:18:46.761Z,14.80
2019-05-20T08:21:16.347Z,14.90
2019-05-20T08:23:49.591Z,14.80
2019-05-20T08:26:17.067Z,14.80
2019-05-20T08:28:46.590Z,14.70
2019-05-20T08:31:16.532Z,14.60
2019-05-20T08:33:46.032Z,14.80
2019-05-20T08:36:15.599Z,14.90
2019-05-20T08:38:45.131Z,15.10
2019-05-20T08:41:14.713Z,15.20
2019-05-20T08:43:44.396Z,15.00
2019-05-20T08:46:13.969Z,15.10
2019-05-20T08:48:43.548Z,15.00
2019-05-20T08:51:13.046Z,15.00
2019-05-20T08:53:43.313Z,15.10
2019-05-20T08:56:12.882Z,15.20
2019-05-20T08:58:42.380Z,15.30
2019-05-20T09:01:12.366Z,15.30
2019-05-20T09:03:42.165Z,15.40
2019-05-20T09:06:12.333Z,15.50
2019-05-20T09:08:41.834Z,15.40
2019-05-20T09:11:11.375Z,15.30
2019-05-20T09:13:40.899Z,15.40
2019-05-20T09:16:10.767Z,15.30
2019-05-20T09:18:40.295Z,15.40
2019-05-20T09:21:10.581Z,15.40
2019-05-20T09:23:40.382Z,15.20
2019-05-20T09:26:09.916Z,15.00
2019-05-20T09:28:39.441Z,15.00
2019-05-20T09:31:09.093Z,15.00
2019-05-20T09:33:39.308Z,15.10
2019-05-20T09:36:09.190Z,15.00
2019-05-20T09:38:38.922Z,15.00
2019-05-20T09:41:08.803Z,15.10
2019-05-20T09:43:38.693Z,15.20
2019-05-20T09:46:08.536Z,15.20
2019-05-20T09:48:38.519Z,15.30
2019-05-20T09:51:08.007Z,15.20
2019-05-20T09:53:37.530Z,15.30
2019-05-20T09:56:07.039Z,15.40
2019-05-20T09:58:36.729Z,15.60
2019-05-20T10:01:06.610Z,15.60
2019-05-20T10:03:36.534Z,15.60
2019-05-20T10:06:06.059Z,15.60
2019-05-20T10:08:40.895Z,15.60
2019-05-20T10:11:06.864Z,15.80
2019-05-20T10:13:36.479Z,15.80
2019-05-20T10:16:05.970Z,15.80
2019-05-20T10:18:37.855Z,15.60
2019-05-20T10:21:06.720Z,15.70
2019-05-20T10:23:36.255Z,15.70
2019-05-20T10:26:06.079Z,15.70
2019-05-20T10:28:35.762Z,15.70
2019-05-20T10:31:05.257Z,15.80
2019-05-20T10:33:36.933Z,15.90
2019-05-20T10:36:05.927Z,16.00
2019-05-20T10:38:35.575Z,16.20
2019-05-20T10:41:05.235Z,16.20
2019-05-20T10:43:34.779Z,16.10
2019-05-20T10:46:04.368Z,16.20
2019-05-20T10:48:34.308Z,16.20
2019-05-20T10:51:03.850Z,16.20
2019-05-20T10:53:33.740Z,16.10
2019-05-20T10:56:03.424Z,16.20
2019-05-20T10:58:33.508Z,16.20
2019-05-20T11:01:03.872Z,16.30
2019-05-20T11:03:33.748Z,16.10
2019-05-20T11:06:03.630Z,16.20
2019-05-20T11:08:33.261Z,16.10
2019-05-20T11:11:02.927Z,16.10
2019-05-20T11:13:32.543Z,16.10
2019-05-20T11:16:02.090Z,16.10
2019-05-20T11:18:32.376Z,16.10
2019-05-20T11:21:01.970Z,16.20
2019-05-20T11:23:31.671Z,16.50
2019-05-20T11:26:01.206Z,16.60
2019-05-20T11:28:30.759Z,16.60
2019-05-20T11:31:00.735Z,16.70
2019-05-20T11:33:30.314Z,16.60
2019-05-20T11:35:59.983Z,16.90
2019-05-20T11:38:29.849Z,16.90
2019-05-20T11:40:59.377Z,16.90
2019-05-20T11:43:28.874Z,16.90
2019-05-20T11:45:58.432Z,16.80
2019-05-20T11:48:28.306Z,16.90
2019-05-20T11:50:57.790Z,16.90
2019-05-20T11:53:27.306Z,17.00
2019-05-20T11:55:57.177Z,17.10
2019-05-20T11:58:26.858Z,17.20
2019-05-20T12:00:56.403Z,17.20
2019-05-20T12:03:26.737Z,17.20
2019-05-20T12:05:56.695Z,17.30
2019-05-20T12:08:26.630Z,17.50
2019-05-20T12:10:56.503Z,17.90
2019-05-20T12:13:26.483Z,18.50
2019-05-20T12:15:56.302Z,18.70
2019-05-20T12:18:26.124Z,18.90
2019-05-20T12:20:55.672Z,19.10
2019-05-20T12:23:25.254Z,19.00
2019-05-20T12:25:54.742Z,18.90
2019-05-20T12:28:24.246Z,19.00
2019-05-20T12:30:53.763Z,19.60
2019-05-20T12:33:23.648Z,19.60
2019-05-20T12:35:53.159Z,19.80
2019-05-20T12:38:22.636Z,19.90
2019-05-20T12:40:52.146Z,19.70
2019-05-20T12:43:22.131Z,20.00
2019-05-20T12:45:51.644Z,20.40
2019-05-20T12:48:21.155Z,20.40
2019-05-20T12:50:50.668Z,20.40
2019-05-20T12:53:20.788Z,20.50
2019-05-20T12:55:50.633Z,20.40
2019-05-20T12:58:20.154Z,20.50
2019-05-20T13:00:50.414Z,20.40
2019-05-20T13:03:20.809Z,20.60
2019-05-20T13:05:50.378Z,20.70
2019-05-20T13:08:20.219Z,20.80
2019-05-20T13:10:49.833Z,20.90
2019-05-20T13:13:19.491Z,21.00
2019-05-20T13:15:49.034Z,20.90
2019-05-20T13:18:18.870Z,21.10
2019-05-20T13:20:49.171Z,21.40
2019-05-20T13:23:18.984Z,21.30
2019-05-20T13:25:48.546Z,21.40
2019-05-20T13:28:18.203Z,21.40
2019-05-20T13:30:48.222Z,21.60
2019-05-20T13:33:18.160Z,21.50
2019-05-20T13:35:47.715Z,21.80
2019-05-20T13:38:17.276Z,21.80
2019-05-20T13:40:47.523Z,21.90
2019-05-20T13:43:17.517Z,21.80
2019-05-20T13:45:48.230Z,21.70
2019-05-20T13:48:18.049Z,21.70
2019-05-20T13:50:47.523Z,21.80
2019-05-20T13:53:17.038Z,21.70
2019-05-20T13:55:46.527Z,21.70
2019-05-20T13:58:16.108Z,21.70
2019-05-20T14:00:45.988Z,21.80
2019-05-20T14:03:15.523Z,21.80
2019-05-20T14:05:45.044Z,21.30
2019-05-20T14:08:14.622Z,21.30
2019-05-20T14:10:44.177Z,21.10
2019-05-20T14:13:13.717Z,21.10
2019-05-20T14:15:43.243Z,21.20
2019-05-20T14:18:12.781Z,21.40
2019-05-20T14:20:42.746Z,21.40
2019-05-20T14:23:12.974Z,21.50
2019-05-20T14:25:42.569Z,21.50
2019-05-20T14:28:12.327Z,21.50
2019-05-20T14:30:42.033Z,21.70
2019-05-20T14:33:11.557Z,21.90
2019-05-20T14:35:41.130Z,22.00
2019-05-20T14:38:11.190Z,22.00
2019-05-20T14:40:41.234Z,21.80
2019-05-20T14:43:10.769Z,21.40
2019-05-20T14:45:41.032Z,21.30
2019-05-20T14:48:10.702Z,21.30
2019-05-20T14:50:40.252Z,21.40
2019-05-20T14:53:10.268Z,21.60
2019-05-20T14:55:42.622Z,21.40
2019-05-20T14:58:11.418Z,21.50
2019-05-20T15:00:41.643Z,21.70
2019-05-20T15:03:11.147Z,21.60
2019-05-20T15:05:40.815Z,21.60
2019-05-20T15:08:10.955Z,21.60
2019-05-20T15:10:40.825Z,21.70
2019-05-20T15:13:10.359Z,21.70
2019-05-20T15:15:40.080Z,21.80
2019-05-20T15:18:09.931Z,22.00
2019-05-20T15:20:39.462Z,22.10
2019-05-20T15:23:09.004Z,22.10
2019-05-20T15:25:54.319Z,22.00
2019-05-20T15:28:19.813Z,22.00
2019-05-20T15:31:20.343Z,22.20
2019-05-20T15:33:50.383Z,22.20
2019-05-20T15:36:20.354Z,22.30
2019-05-20T15:38:50.346Z,21.90
2019-05-20T15:41:19.868Z,21.40
2019-05-20T15:43:49.351Z,21.40
2019-05-20T15:46:19.243Z,21.40
2019-05-20T15:48:48.895Z,21.30
2019-05-20T15:51:18.774Z,21.20
2019-05-20T15:53:48.299Z,21.10
2019-05-20T15:56:19.256Z,21.30
2019-05-20T15:58:49.113Z,21.20
2019-05-20T16:01:18.848Z,21.10
2019-05-20T16:03:51.322Z,20.70
2019-05-20T16:06:19.855Z,20.80
2019-05-20T16:08:49.360Z,20.80
2019-05-20T16:11:18.819Z,21.10
2019-05-20T16:13:48.416Z,21.20
2019-05-20T16:16:18.839Z,20.50
2019-05-20T16:18:48.605Z,20.50
2019-05-20T16:21:18.119Z,20.20
2019-05-20T16:23:47.718Z,20.30
2019-05-20T16:26:17.317Z,20.30
2019-05-20T16:28:47.318Z,20.20
2019-05-20T16:31:17.022Z,20.30
2019-05-20T16:33:46.931Z,20.50
2019-05-20T16:36:17.003Z,20.50
2019-05-20T16:38:46.859Z,20.70
2019-05-20T16:41:16.419Z,20.40
2019-05-20T16:43:45.937Z,20.00
2019-05-20T16:46:15.487Z,19.90
2019-05-20T16:48:44.993Z,19.80
2019-05-20T16:51:14.581Z,19.80
2019-05-20T16:53:44.091Z,19.60
2019-05-20T16:56:13.874Z,19.20
2019-05-20T16:58:43.501Z,19.10
2019-05-20T17:01:13.065Z,19.20
2019-05-20T17:03:43.857Z,19.00
2019-05-20T17:06:13.450Z,18.80
2019-05-20T17:08:43.074Z,18.60
2019-05-20T17:11:12.586Z,18.50
2019-05-20T17:13:42.754Z,18.60
2019-05-20T17:16:12.306Z,18.70
2019-05-20T17:18:42.228Z,18.60
2019-05-20T17:21:11.757Z,18.30
2019-05-20T17:23:41.751Z,18.10
2019-05-20T17:26:11.284Z,18.20
2019-05-20T17:28:40.806Z,18.20
2019-05-20T17:31:10.486Z,18.20
2019-05-20T17:33:40.423Z,18.10
2019-05-20T17:36:10.165Z,18.00
2019-05-20T17:38:39.845Z,18.10
2019-05-20T17:41:11.843Z,17.90
2019-05-20T17:43:41.383Z,17.90
2019-05-20T17:46:10.972Z,17.90
2019-05-20T17:48:41.266Z,17.80
2019-05-20T17:51:10.969Z,17.90
2019-05-20T17:53:40.532Z,17.80
2019-05-20T17:56:10.115Z,17.70
2019-05-20T17:58:39.648Z,17.80
2019-05-20T18:01:15.332Z,17.90
2019-05-20T18:03:40.379Z,18.00
2019-05-20T18:06:09.928Z,17.80
2019-05-20T18:08:42.736Z,17.80
2019-05-20T18:11:12.278Z,17.80
2019-05-20T18:13:41.866Z,17.60
2019-05-20T18:16:11.852Z,17.50
2019-05-20T18:18:41.354Z,17.50
2019-05-20T18:21:11.349Z,17.50
2019-05-20T18:23:40.867Z,17.40
2019-05-20T18:26:10.426Z,17.50
2019-05-20T18:28:40.283Z,17.40
2019-05-20T18:31:09.864Z,17.40
2019-05-20T18:33:39.736Z,17.30
2019-05-20T18:36:09.562Z,17.30
2019-05-20T18:38:39.515Z,17.30
2019-05-20T18:41:09.004Z,17.30
2019-05-20T18:43:39.069Z,17.30
2019-05-20T18:46:08.879Z,17.30
2019-05-20T18:48:38.443Z,17.30
2019-05-20T18:51:08.322Z,17.30
2019-05-20T18:53:37.930Z,17.30
2019-05-20T18:56:07.480Z,17.20
2019-05-20T18:58:37.433Z,17.30
2019-05-20T19:01:07.407Z,17.30
2019-05-20T19:03:37.496Z,17.30
2019-05-20T19:06:08.519Z,17.20
2019-05-20T19:08:38.803Z,17.20
2019-05-20T19:11:09.283Z,17.20
2019-05-20T19:13:38.922Z,17.10
2019-05-20T19:16:08.633Z,17.10
2019-05-20T19:18:38.703Z,17.00
2019-05-20T19:21:08.937Z,17.00
2019-05-20T19:23:39.330Z,17.00
2019-05-20T19:26:22.501Z,17.00
2019-05-20T19:28:41.347Z,16.90
2019-05-20T19:31:10.846Z,16.80
2019-05-20T19:33:40.711Z,16.80
2019-05-20T19:36:10.295Z,16.80
2019-05-20T19:38:39.861Z,16.70
2019-05-20T19:41:09.373Z,16.70
2019-05-20T19:43:39.491Z,16.60
2019-05-20T19:46:08.983Z,16.60
2019-05-20T19:48:38.897Z,16.50
2019-05-20T19:51:08.810Z,16.50
2019-05-20T19:53:38.330Z,16.50
2019-05-20T19:56:08.064Z,16.40
2019-05-20T19:58:37.609Z,16.30
2019-05-20T20:01:07.192Z,16.30
2019-05-20T20:03:36.997Z,16.30
2019-05-20T20:06:06.687Z,16.30
2019-05-20T20:08:36.726Z,16.20
2019-05-20T20:11:09.154Z,16.20
2019-05-20T20:13:39.312Z,16.10
2019-05-20T20:16:08.895Z,16.00
2019-05-20T20:18:39.242Z,16.00
2019-05-20T20:21:09.337Z,16.00
2019-05-20T20:23:38.917Z,15.90
2019-05-20T20:26:08.579Z,15.80
2019-05-20T20:28:38.322Z,15.70
2019-05-20T20:31:10.873Z,15.70
2019-05-20T20:33:39.621Z,15.50
2019-05-20T20:36:09.173Z,15.50
2019-05-20T20:38:39.658Z,15.40
2019-05-20T20:41:09.571Z,15.40
2019-05-20T20:43:39.508Z,15.40
2019-05-20T20:46:09.659Z,15.30
2019-05-20T20:48:39.235Z,15.30
2019-05-20T20:51:09.264Z,15.30
2019-05-20T20:53:39.714Z,15.30
2019-05-20T20:56:24.067Z,15.20
2019-05-20T20:58:40.735Z,15.20
2019-05-20T21:01:10.270Z,15.10
2019-05-20T21:03:39.795Z,15.10
2019-05-20T21:06:09.359Z,15.10
2019-05-20T21:08:39.545Z,15.10
2019-05-20T21:11:09.148Z,15.00
2019-05-20T21:13:38.679Z,15.00
2019-05-20T21:16:08.229Z,15.00
2019-05-20T21:18:38.363Z,15.00
2019-05-20T21:21:08.367Z,15.00
2019-05-20T21:23:38.270Z,14.90
2019-05-20T21:26:07.806Z,14.90
2019-05-20T21:28:37.752Z,14.90
2019-05-20T21:31:07.494Z,14.80
2019-05-20T21:33:37.001Z,14.80
2019-05-20T21:36:06.502Z,14.80
2019-05-20T21:38:36.652Z,14.80
2019-05-20T21:41:06.168Z,14.70
2019-05-20T21:43:36.067Z,14.80
2019-05-20T21:46:05.599Z,14.80
2019-05-20T21:48:35.118Z,14.70
2019-05-20T21:51:04.650Z,14.70
2019-05-20T21:53:34.152Z,14.60
2019-05-20T21:56:04.105Z,14.60
2019-05-20T21:58:33.635Z,14.50
2019-05-20T22:01:04.179Z,14.50
2019-05-20T22:03:34.512Z,14.50
2019-05-20T22:06:04.113Z,14.50
2019-05-20T22:08:33.626Z,14.50
2019-05-20T22:11:03.161Z,14.50
2019-05-20T22:13:32.704Z,14.50
2019-05-20T22:16:02.270Z,14.40
2019-05-20T22:18:31.813Z,14.40
2019-05-20T22:21:01.726Z,14.30
2019-05-20T22:23:45.467Z,14.30
2019-05-20T22:26:14.986Z,14.30
2019-05-20T22:28:44.490Z,14.30
2019-05-20T22:31:14.044Z,14.30
2019-05-20T22:33:43.550Z,14.30
2019-05-20T22:36:13.043Z,14.20
2019-05-20T22:38:42.684Z,14.20
2019-05-20T22:41:12.198Z,14.20
2019-05-20T22:43:41.695Z,14.20
2019-05-20T22:46:11.469Z,14.20
2019-05-20T22:48:42.156Z,14.20
2019-05-20T22:51:11.818Z,14.20
2019-05-20T22:53:41.367Z,14.20
2019-05-20T22:56:10.882Z,14.10
2019-05-20T22:58:40.456Z,14.00
2019-05-20T23:01:09.950Z,14.00
2019-05-20T23:03:39.488Z,14.00
2019-05-20T23:06:09.008Z,14.00
2019-05-20T23:08:38.971Z,14.00
2019-05-20T23:11:08.809Z,14.00
2019-05-20T23:13:38.322Z,13.90
2019-05-20T23:16:07.907Z,13.80
2019-05-20T23:18:37.462Z,13.80
2019-05-20T23:21:07.004Z,13.70
2019-05-20T23:23:37.383Z,13.70
2019-05-20T23:26:06.882Z,13.70
2019-05-20T23:28:36.692Z,13.60
2019-05-20T23:31:06.567Z,13.70
2019-05-20T23:33:36.080Z,13.70
2019-05-20T23:36:05.608Z,13.60
2019-05-20T23:38:35.111Z,13.60
2019-05-20T23:41:04.822Z,13.60
2019-05-20T23:43:34.317Z,13.50
2019-05-20T23:46:04.151Z,13.50
2019-05-20T23:48:33.679Z,13.50
2019-05-20T23:51:03.319Z,13.40
2019-05-20T23:53:32.823Z,13.40
2019-05-20T23:56:02.475Z,13.30
2019-05-20T23:58:31.971Z,13.30
